sensor_id;sensor_type;location;lat;lon;timestamp;pressure;altitude;pressure_sealevel;temperature;humidity
49825;BME280;35714;55.708;37.478;2023-07-31T00:00:12;98641.44;;;17.00;58.16
49825;BME280;35714;55.708;37.478;2023-07-31T00:02:38;98642.84;;;16.97;58.29
49825;BME280;35714;55.708;37.478;2023-07-31T00:05:04;98642.63;;;16.93;58.15
49825;BME280;35714;55.708;37.478;2023-07-31T00:07:31;98640.78;;;16.89;58.62
49825;BME280;35714;55.708;37.478;2023-07-31T00:09:56;98641.59;;;16.89;58.62
49825;BME280;35714;55.708;37.478;2023-07-31T00:12:22;98640.53;;;16.85;59.16
49825;BME280;35714;55.708;37.478;2023-07-31T00:14:48;98639.47;;;16.81;58.92
49825;BME280;35714;55.708;37.478;2023-07-31T00:17:14;98646.91;;;16.81;59.09
49825;BME280;35714;55.708;37.478;2023-07-31T00:19:40;98649.38;;;16.77;59.35
49825;BME280;35714;55.708;37.478;2023-07-31T00:22:05;98636.59;;;16.72;59.05
49825;BME280;35714;55.708;37.478;2023-07-31T00:24:31;98635.78;;;16.72;59.58
49825;BME280;35714;55.708;37.478;2023-07-31T00:26:57;98638.59;;;16.67;59.55
49825;BME280;35714;55.708;37.478;2023-07-31T00:29:22;98653.38;;;16.66;60.05
49825;BME280;35714;55.708;37.478;2023-07-31T00:31:48;98644.94;;;16.62;60.07
49825;BME280;35714;55.708;37.478;2023-07-31T00:34:14;98642.00;;;16.58;60.15
49825;BME280;35714;55.708;37.478;2023-07-31T00:36:39;98638.41;;;16.58;60.06
49825;BME280;35714;55.708;37.478;2023-07-31T00:39:05;98637.09;;;16.55;60.31
49825;BME280;35714;55.708;37.478;2023-07-31T00:41:31;98639.31;;;16.53;60.51
49825;BME280;35714;55.708;37.478;2023-07-31T00:43:56;98634.97;;;16.52;60.41
49825;BME280;35714;55.708;37.478;2023-07-31T00:46:22;98631.38;;;16.52;60.55
49825;BME280;35714;55.708;37.478;2023-07-31T00:48:48;98628.94;;;16.50;60.68
49825;BME280;35714;55.708;37.478;2023-07-31T00:51:15;98626.19;;;16.50;60.16
49825;BME280;35714;55.708;37.478;2023-07-31T00:53:41;98628.94;;;16.50;60.32
49825;BME280;35714;55.708;37.478;2023-07-31T00:56:08;98628.13;;;16.50;60.51
49825;BME280;35714;55.708;37.478;2023-07-31T00:58:33;98625.69;;;16.48;60.48
49825;BME280;35714;55.708;37.478;2023-07-31T01:00:59;98635.00;;;16.47;60.48
49825;BME280;35714;55.708;37.478;2023-07-31T01:03:25;98633.38;;;16.46;60.75
49825;BME280;35714;55.708;37.478;2023-07-31T01:06:07;98627.38;;;16.44;60.44
49825;BME280;35714;55.708;37.478;2023-07-31T01:11:28;98630.34;;;16.48;60.44
49825;BME280;35714;55.708;37.478;2023-07-31T01:13:55;98627.66;;;16.42;60.73
49825;BME280;35714;55.708;37.478;2023-07-31T01:16:21;98637.81;;;16.42;60.51
49825;BME280;35714;55.708;37.478;2023-07-31T01:18:46;98637.81;;;16.42;60.67
49825;BME280;35714;55.708;37.478;2023-07-31T01:21:21;98630.41;;;16.42;60.98
49825;BME280;35714;55.708;37.478;2023-07-31T01:24:04;98635.00;;;16.47;60.65
49825;BME280;35714;55.708;37.478;2023-07-31T01:26:36;98630.66;;;16.46;60.67
49825;BME280;35714;55.708;37.478;2023-07-31T01:31:33;98624.94;;;16.42;60.68
49825;BME280;35714;55.708;37.478;2023-07-31T01:34:01;98632.84;;;16.44;60.53
49825;BME280;35714;55.708;37.478;2023-07-31T01:36:28;98628.50;;;16.43;60.70
49825;BME280;35714;55.708;37.478;2023-07-31T01:38:59;98630.09;;;16.44;60.33
49825;BME280;35714;55.708;37.478;2023-07-31T01:41:26;98630.69;;;16.41;60.52
49825;BME280;35714;55.708;37.478;2023-07-31T01:43:52;98626.06;;;16.41;60.59
49825;BME280;35714;55.708;37.478;2023-07-31T01:46:17;98631.75;;;16.45;60.29
49825;BME280;35714;55.708;37.478;2023-07-31T01:48:43;98626.28;;;16.45;60.72
49825;BME280;35714;55.708;37.478;2023-07-31T01:51:09;98624.63;;;16.44;60.31
49825;BME280;35714;55.708;37.478;2023-07-31T01:53:35;98619.16;;;16.44;60.48
49825;BME280;35714;55.708;37.478;2023-07-31T01:56:01;98632.03;;;16.44;60.78
49825;BME280;35714;55.708;37.478;2023-07-31T01:58:29;98632.56;;;16.46;60.55
49825;BME280;35714;55.708;37.478;2023-07-31T02:00:55;98625.47;;;16.45;60.71
49825;BME280;35714;55.708;37.478;2023-07-31T02:03:21;98629.00;;;16.45;60.28
49825;BME280;35714;55.708;37.478;2023-07-31T02:05:47;98634.72;;;16.49;60.57
49825;BME280;35714;55.708;37.478;2023-07-31T02:08:14;98632.81;;;16.49;60.41
49825;BME280;35714;55.708;37.478;2023-07-31T02:10:40;98637.69;;;16.52;60.38
49825;BME280;35714;55.708;37.478;2023-07-31T02:13:06;98628.66;;;16.52;60.41
49825;BME280;35714;55.708;37.478;2023-07-31T02:15:32;98638.72;;;16.56;60.50
49825;BME280;35714;55.708;37.478;2023-07-31T02:17:58;98628.31;;;16.58;60.63
49825;BME280;35714;55.708;37.478;2023-07-31T02:20:24;98630.22;;;16.58;60.06
49825;BME280;35714;55.708;37.478;2023-07-31T02:22:51;98629.63;;;16.61;59.83
49825;BME280;35714;55.708;37.478;2023-07-31T02:25:16;98632.28;;;16.66;60.13
49825;BME280;35714;55.708;37.478;2023-07-31T02:27:44;98633.91;;;16.67;59.87
49825;BME280;35714;55.708;37.478;2023-07-31T02:30:10;98628.66;;;16.71;59.95
49825;BME280;35714;55.708;37.478;2023-07-31T02:32:37;98626.47;;;16.73;59.67
49825;BME280;35714;55.708;37.478;2023-07-31T02:35:03;98631.34;;;16.76;59.99
49825;BME280;35714;55.708;37.478;2023-07-31T02:37:30;98637.34;;;16.78;59.63
49825;BME280;35714;55.708;37.478;2023-07-31T02:39:56;98634.00;;;16.81;59.84
49825;BME280;35714;55.708;37.478;2023-07-31T02:42:21;98642.72;;;16.83;59.44
49825;BME280;35714;55.708;37.478;2023-07-31T02:44:47;98640.53;;;16.85;59.64
49825;BME280;35714;55.708;37.478;2023-07-31T02:47:13;98641.59;;;16.89;59.50
49825;BME280;35714;55.708;37.478;2023-07-31T02:49:38;98640.78;;;16.89;59.76
49825;BME280;35714;55.708;37.478;2023-07-31T02:52:04;98638.25;;;16.92;59.77
49825;BME280;35714;55.708;37.478;2023-07-31T02:54:30;98634.94;;;16.95;59.84
49825;BME280;35714;55.708;37.478;2023-07-31T02:56:55;98638.16;;;16.98;59.50
49825;BME280;35714;55.708;37.478;2023-07-31T02:59:21;98636.78;;;17.00;59.86
49825;BME280;35714;55.708;37.478;2023-07-31T03:01:47;98644.59;;;17.07;59.57
49825;BME280;35714;55.708;37.478;2023-07-31T03:04:13;98639.13;;;17.07;59.75
49825;BME280;35714;55.708;37.478;2023-07-31T03:06:38;98642.13;;;17.10;59.49
49825;BME280;35714;55.708;37.478;2023-07-31T03:09:05;98637.44;;;17.11;59.12
49825;BME280;35714;55.708;37.478;2023-07-31T03:11:30;98633.59;;;17.12;59.17
49825;BME280;35714;55.708;37.478;2023-07-31T03:13:57;98628.13;;;17.12;59.01
49825;BME280;35714;55.708;37.478;2023-07-31T03:16:23;98632.41;;;17.18;58.93
49825;BME280;35714;55.708;37.478;2023-07-31T03:18:48;98635.34;;;17.22;58.97
49825;BME280;35714;55.708;37.478;2023-07-31T03:21:14;98631.72;;;17.26;58.92
49825;BME280;35714;55.708;37.478;2023-07-31T03:23:40;98637.91;;;17.32;58.63
49825;BME280;35714;55.708;37.478;2023-07-31T03:26:08;98632.69;;;17.36;58.84
49825;BME280;35714;55.708;37.478;2023-07-31T03:28:34;98637.75;;;17.42;58.72
49825;BME280;35714;55.708;37.478;2023-07-31T03:31:00;98623.56;;;17.40;58.50
49825;BME280;35714;55.708;37.478;2023-07-31T03:33:26;98635.13;;;17.51;58.51
49825;BME280;35714;55.708;37.478;2023-07-31T03:35:52;98635.06;;;17.56;58.34
49825;BME280;35714;55.708;37.478;2023-07-31T03:38:18;98628.09;;;17.64;58.51
49825;BME280;35714;55.708;37.478;2023-07-31T03:40:44;98631.53;;;17.70;58.35
49825;BME280;35714;55.708;37.478;2023-07-31T03:43:11;98631.97;;;17.77;58.50
49825;BME280;35714;55.708;37.478;2023-07-31T03:45:39;98629.13;;;17.82;57.98
49825;BME280;35714;55.708;37.478;2023-07-31T03:48:05;98620.28;;;17.85;58.31
49825;BME280;35714;55.708;37.478;2023-07-31T03:50:31;98626.72;;;17.94;57.87
49825;BME280;35714;55.708;37.478;2023-07-31T03:52:56;98621.66;;;18.01;57.80
49825;BME280;35714;55.708;37.478;2023-07-31T03:55:22;98626.75;;;18.08;57.39
49825;BME280;35714;55.708;37.478;2023-07-31T03:57:47;98628.56;;;18.13;57.51
49825;BME280;35714;55.708;37.478;2023-07-31T04:00:14;98627.97;;;18.16;56.96
49825;BME280;35714;55.708;37.478;2023-07-31T04:02:41;98624.50;;;18.24;57.05
49825;BME280;35714;55.708;37.478;2023-07-31T04:05:07;98631.53;;;18.30;56.68
49825;BME280;35714;55.708;37.478;2023-07-31T04:07:33;98628.56;;;18.40;56.73
49825;BME280;35714;55.708;37.478;2023-07-31T04:09:59;98633.34;;;18.49;56.73
49825;BME280;35714;55.708;37.478;2023-07-31T04:12:25;98638.09;;;18.57;56.12
49825;BME280;35714;55.708;37.478;2023-07-31T04:14:51;98639.63;;;18.63;55.49
49825;BME280;35714;55.708;37.478;2023-07-31T04:17:17;98645.50;;;18.70;55.64
49825;BME280;35714;55.708;37.478;2023-07-31T04:19:43;98644.25;;;18.76;55.11
49825;BME280;35714;55.708;37.478;2023-07-31T04:22:09;98649.03;;;18.85;54.83
49825;BME280;35714;55.708;37.478;2023-07-31T04:24:35;98646.22;;;18.90;54.67
49825;BME280;35714;55.708;37.478;2023-07-31T04:27:01;98648.84;;;18.95;54.48
49825;BME280;35714;55.708;37.478;2023-07-31T04:29:26;98645.34;;;19.03;54.29
49825;BME280;35714;55.708;37.478;2023-07-31T04:31:52;98649.59;;;19.09;54.16
49825;BME280;35714;55.708;37.478;2023-07-31T04:34:18;98650.00;;;19.17;54.04
49825;BME280;35714;55.708;37.478;2023-07-31T04:36:43;98653.09;;;19.24;53.38
49825;BME280;35714;55.708;37.478;2023-07-31T04:39:09;98643.63;;;19.30;53.15
49825;BME280;35714;55.708;37.478;2023-07-31T04:41:35;98651.13;;;19.38;53.21
49825;BME280;35714;55.708;37.478;2023-07-31T04:44:01;98648.25;;;19.43;52.95
49825;BME280;35714;55.708;37.478;2023-07-31T04:46:27;98653.69;;;19.57;52.56
49825;BME280;35714;55.708;37.478;2023-07-31T04:48:52;98657.47;;;19.70;52.30
49825;BME280;35714;55.708;37.478;2023-07-31T04:51:18;98658.06;;;19.81;52.32
49825;BME280;35714;55.708;37.478;2023-07-31T04:53:44;98651.00;;;19.89;51.95
49825;BME280;35714;55.708;37.478;2023-07-31T04:56:09;98657.84;;;20.00;51.92
49825;BME280;35714;55.708;37.478;2023-07-31T04:58:35;98657.38;;;20.07;51.25
49825;BME280;35714;55.708;37.478;2023-07-31T05:01:01;98652.56;;;20.12;51.01
49825;BME280;35714;55.708;37.478;2023-07-31T05:03:26;98660.34;;;20.19;51.21
49825;BME280;35714;55.708;37.478;2023-07-31T05:05:52;98654.06;;;20.27;51.54
49825;BME280;35714;55.708;37.478;2023-07-31T05:08:18;98657.81;;;20.40;50.51
49825;BME280;35714;55.708;37.478;2023-07-31T05:10:44;98659.16;;;20.51;50.28
49825;BME280;35714;55.708;37.478;2023-07-31T05:13:09;98661.13;;;20.60;49.80
49825;BME280;35714;55.708;37.478;2023-07-31T05:15:35;98656.97;;;20.71;49.72
49825;BME280;35714;55.708;37.478;2023-07-31T05:18:01;98651.13;;;20.81;49.81
49825;BME280;35714;55.708;37.478;2023-07-31T05:20:26;98659.44;;;20.90;48.74
49825;BME280;35714;55.708;37.478;2023-07-31T05:22:53;98641.59;;;20.87;48.33
49825;BME280;35714;55.708;37.478;2023-07-31T05:25:19;98649.56;;;20.98;48.51
49825;BME280;35714;55.708;37.478;2023-07-31T05:27:45;98664.16;;;21.07;48.63
49825;BME280;35714;55.708;37.478;2023-07-31T05:30:11;98657.81;;;21.15;48.35
49825;BME280;35714;55.708;37.478;2023-07-31T05:32:36;98659.13;;;21.26;47.42
49825;BME280;35714;55.708;37.478;2023-07-31T05:35:02;98664.50;;;21.32;46.72
49825;BME280;35714;55.708;37.478;2023-07-31T05:37:30;98667.06;;;21.37;46.67
49825;BME280;35714;55.708;37.478;2023-07-31T05:39:56;98659.28;;;21.39;46.34
49825;BME280;35714;55.708;37.478;2023-07-31T05:42:21;98654.88;;;21.47;46.24
49825;BME280;35714;55.708;37.478;2023-07-31T05:44:47;98661.56;;;21.54;46.14
49825;BME280;35714;55.708;37.478;2023-07-31T05:47:13;98662.69;;;21.62;46.46
49825;BME280;35714;55.708;37.478;2023-07-31T05:49:38;98662.00;;;21.74;46.41
49825;BME280;35714;55.708;37.478;2023-07-31T05:52:04;98668.63;;;21.90;46.27
49825;BME280;35714;55.708;37.478;2023-07-31T05:54:31;98667.28;;;22.05;46.10
49825;BME280;35714;55.708;37.478;2023-07-31T05:56:57;98665.63;;;22.13;45.78
49825;BME280;35714;55.708;37.478;2023-07-31T05:59:23;98661.22;;;22.21;44.74
49825;BME280;35714;55.708;37.478;2023-07-31T06:01:48;98665.28;;;22.23;44.58
49825;BME280;35714;55.708;37.478;2023-07-31T06:04:14;98670.94;;;22.27;44.90
49825;BME280;35714;55.708;37.478;2023-07-31T06:06:39;98654.53;;;22.30;43.36
49825;BME280;35714;55.708;37.478;2023-07-31T06:09:05;98664.25;;;22.37;43.54
49825;BME280;35714;55.708;37.478;2023-07-31T06:11:31;98660.66;;;22.45;42.94
49825;BME280;35714;55.708;37.478;2023-07-31T06:13:56;98663.69;;;22.52;43.16
49825;BME280;35714;55.708;37.478;2023-07-31T06:16:22;98656.50;;;22.60;43.17
49825;BME280;35714;55.708;37.478;2023-07-31T06:18:48;98664.75;;;22.68;42.17
49825;BME280;35714;55.708;37.478;2023-07-31T06:21:14;98660.63;;;22.75;42.78
49825;BME280;35714;55.708;37.478;2023-07-31T06:23:39;98670.34;;;22.81;41.25
49825;BME280;35714;55.708;37.478;2023-07-31T06:26:05;98669.22;;;22.82;41.45
49825;BME280;35714;55.708;37.478;2023-07-31T06:28:31;98671.66;;;22.83;40.14
49825;BME280;35714;55.708;37.478;2023-07-31T06:31:00;98668.34;;;22.90;39.61
49825;BME280;35714;55.708;37.478;2023-07-31T06:33:27;98666.63;;;23.06;39.65
49825;BME280;35714;55.708;37.478;2023-07-31T06:35:53;98663.75;;;23.24;39.16
49825;BME280;35714;55.708;37.478;2023-07-31T06:38:22;98667.31;;;23.46;38.73
49825;BME280;35714;55.708;37.478;2023-07-31T06:40:48;98668.06;;;23.67;38.46
49825;BME280;35714;55.708;37.478;2023-07-31T06:43:14;98668.84;;;23.89;37.40
49825;BME280;35714;55.708;37.478;2023-07-31T06:45:40;98672.56;;;24.18;36.59
49825;BME280;35714;55.708;37.478;2023-07-31T06:48:06;98667.06;;;24.55;36.44
49825;BME280;35714;55.708;37.478;2023-07-31T06:50:31;98676.53;;;25.03;36.64
49825;BME280;35714;55.708;37.478;2023-07-31T06:52:57;98676.97;;;25.58;36.02
49825;BME280;35714;55.708;37.478;2023-07-31T06:55:23;98677.63;;;26.11;35.41
49825;BME280;35714;55.708;37.478;2023-07-31T06:57:51;98682.53;;;26.66;35.20
49825;BME280;35714;55.708;37.478;2023-07-31T07:00:18;98673.81;;;27.19;33.97
49825;BME280;35714;55.708;37.478;2023-07-31T07:02:44;98681.31;;;27.73;33.12
49825;BME280;35714;55.708;37.478;2023-07-31T07:05:10;98673.19;;;28.07;30.43
49825;BME280;35714;55.708;37.478;2023-07-31T07:07:36;98674.38;;;28.30;30.90
49825;BME280;35714;55.708;37.478;2023-07-31T07:10:02;98682.22;;;28.70;30.36
49825;BME280;35714;55.708;37.478;2023-07-31T07:12:31;98677.31;;;29.17;29.44
49825;BME280;35714;55.708;37.478;2023-07-31T07:14:57;98675.53;;;29.66;29.13
49825;BME280;35714;55.708;37.478;2023-07-31T07:17:24;98670.69;;;29.93;28.00
49825;BME280;35714;55.708;37.478;2023-07-31T07:19:49;98676.53;;;30.18;27.13
49825;BME280;35714;55.708;37.478;2023-07-31T07:22:15;98675.41;;;30.30;24.93
49825;BME280;35714;55.708;37.478;2023-07-31T07:24:41;98677.97;;;30.05;25.57
49825;BME280;35714;55.708;37.478;2023-07-31T07:27:07;98678.50;;;30.21;27.21
49825;BME280;35714;55.708;37.478;2023-07-31T07:29:38;98690.50;;;30.67;27.14
49825;BME280;35714;55.708;37.478;2023-07-31T07:32:04;98680.81;;;31.05;25.32
49825;BME280;35714;55.708;37.478;2023-07-31T07:34:30;98690.53;;;31.29;25.08
49825;BME280;35714;55.708;37.478;2023-07-31T07:36:56;98683.84;;;31.52;23.74
49825;BME280;35714;55.708;37.478;2023-07-31T07:39:22;98677.78;;;31.50;23.34
49825;BME280;35714;55.708;37.478;2023-07-31T07:41:47;98683.88;;;31.59;23.61
49825;BME280;35714;55.708;37.478;2023-07-31T07:44:13;98680.28;;;31.59;23.54
49825;BME280;35714;55.708;37.478;2023-07-31T07:46:40;98682.75;;;31.82;24.06
49825;BME280;35714;55.708;37.478;2023-07-31T07:49:06;98684.44;;;32.48;24.18
49825;BME280;35714;55.708;37.478;2023-07-31T07:51:32;98680.38;;;33.21;23.46
49825;BME280;35714;55.708;37.478;2023-07-31T07:53:58;98689.41;;;33.75;23.36
49825;BME280;35714;55.708;37.478;2023-07-31T07:56:25;98679.25;;;33.96;20.44
49825;BME280;35714;55.708;37.478;2023-07-31T07:58:51;98681.78;;;33.72;21.40
49825;BME280;35714;55.708;37.478;2023-07-31T08:01:17;98687.34;;;33.79;21.37
49825;BME280;35714;55.708;37.478;2023-07-31T08:03:42;98691.25;;;34.00;21.07
49825;BME280;35714;55.708;37.478;2023-07-31T08:06:09;98684.69;;;34.17;22.15
49825;BME280;35714;55.708;37.478;2023-07-31T08:08:38;98689.03;;;34.82;22.60
49825;BME280;35714;55.708;37.478;2023-07-31T08:11:04;98681.50;;;35.10;21.50
49825;BME280;35714;55.708;37.478;2023-07-31T08:13:30;98691.69;;;35.38;18.88
49825;BME280;35714;55.708;37.478;2023-07-31T08:15:55;98693.88;;;35.19;19.61
49825;BME280;35714;55.708;37.478;2023-07-31T08:18:21;98697.03;;;35.29;18.86
49825;BME280;35714;55.708;37.478;2023-07-31T08:20:47;98689.91;;;34.75;19.43
49825;BME280;35714;55.708;37.478;2023-07-31T08:23:13;98687.53;;;34.70;20.37
49825;BME280;35714;55.708;37.478;2023-07-31T08:25:39;98688.56;;;34.91;19.82
49825;BME280;35714;55.708;37.478;2023-07-31T08:28:05;98702.13;;;34.99;19.62
49825;BME280;35714;55.708;37.478;2023-07-31T08:30:32;98701.81;;;34.94;19.93
49825;BME280;35714;55.708;37.478;2023-07-31T08:32:59;98695.28;;;35.42;20.84
49825;BME280;35714;55.708;37.478;2023-07-31T08:35:26;98701.19;;;36.13;19.73
49825;BME280;35714;55.708;37.478;2023-07-31T08:37:54;98698.94;;;36.55;17.73
49825;BME280;35714;55.708;37.478;2023-07-31T08:40:20;98700.06;;;36.07;18.21
49825;BME280;35714;55.708;37.478;2023-07-31T08:42:49;98700.34;;;36.12;18.81
49825;BME280;35714;55.708;37.478;2023-07-31T08:45:18;98699.63;;;36.36;18.71
49825;BME280;35714;55.708;37.478;2023-07-31T08:47:49;98710.75;;;36.19;18.56
49825;BME280;35714;55.708;37.478;2023-07-31T08:50:17;98701.84;;;35.63;18.69
49825;BME280;35714;55.708;37.478;2023-07-31T08:52:45;98691.78;;;35.62;18.65
49825;BME280;35714;55.708;37.478;2023-07-31T08:55:11;98711.00;;;36.01;18.55
49825;BME280;35714;55.708;37.478;2023-07-31T08:57:38;98707.81;;;35.37;19.26
49825;BME280;35714;55.708;37.478;2023-07-31T09:00:05;98704.38;;;34.77;19.73
49825;BME280;35714;55.708;37.478;2023-07-31T09:02:46;98714.22;;;35.00;18.84
49825;BME280;35714;55.708;37.478;2023-07-31T09:05:12;98705.69;;;35.07;18.90
49825;BME280;35714;55.708;37.478;2023-07-31T09:07:38;98701.44;;;35.30;18.11
49825;BME280;35714;55.708;37.478;2023-07-31T09:10:05;98712.00;;;35.56;17.92
49825;BME280;35714;55.708;37.478;2023-07-31T09:12:31;98704.75;;;35.55;18.09
49825;BME280;35714;55.708;37.478;2023-07-31T09:14:58;98695.03;;;35.26;18.36
49825;BME280;35714;55.708;37.478;2023-07-31T09:17:31;98692.69;;;34.33;19.37
49825;BME280;35714;55.708;37.478;2023-07-31T09:19:57;98699.66;;;33.19;20.75
49825;BME280;35714;55.708;37.478;2023-07-31T09:22:33;98701.31;;;32.69;20.99
49825;BME280;35714;55.708;37.478;2023-07-31T09:25:20;98698.03;;;33.25;21.03
49825;BME280;35714;55.708;37.478;2023-07-31T09:27:48;98696.84;;;34.07;20.39
49825;BME280;35714;55.708;37.478;2023-07-31T09:30:15;98702.50;;;35.05;19.32
49825;BME280;35714;55.708;37.478;2023-07-31T09:32:41;98695.25;;;35.73;19.11
49825;BME280;35714;55.708;37.478;2023-07-31T09:35:30;98695.94;;;36.39;18.14
49825;BME280;35714;55.708;37.478;2023-07-31T09:38:05;98697.91;;;37.13;17.41
49825;BME280;35714;55.708;37.478;2023-07-31T09:40:32;98698.00;;;37.49;16.43
49825;BME280;35714;55.708;37.478;2023-07-31T09:43:03;98699.72;;;37.43;16.85
49825;BME280;35714;55.708;37.478;2023-07-31T09:45:33;98697.00;;;37.96;16.90
49825;BME280;35714;55.708;37.478;2023-07-31T09:47:58;98688.03;;;38.34;15.76
49825;BME280;35714;55.708;37.478;2023-07-31T09:50:24;98695.50;;;37.91;16.16
49825;BME280;35714;55.708;37.478;2023-07-31T09:52:51;98700.53;;;36.80;17.38
49825;BME280;35714;55.708;37.478;2023-07-31T09:55:18;98704.03;;;35.48;17.82
49825;BME280;35714;55.708;37.478;2023-07-31T09:57:47;98690.06;;;34.53;18.83
49825;BME280;35714;55.708;37.478;2023-07-31T10:00:18;98706.34;;;34.80;18.88
49825;BME280;35714;55.708;37.478;2023-07-31T10:02:47;98701.34;;;35.37;17.99
49825;BME280;35714;55.708;37.478;2023-07-31T10:05:14;98702.41;;;35.81;18.25
49825;BME280;35714;55.708;37.478;2023-07-31T10:07:53;98710.59;;;36.57;17.55
49825;BME280;35714;55.708;37.478;2023-07-31T10:10:21;98701.34;;;37.00;17.24
49825;BME280;35714;55.708;37.478;2023-07-31T10:12:48;98697.63;;;37.67;16.98
49825;BME280;35714;55.708;37.478;2023-07-31T10:15:15;98697.06;;;38.29;15.96
49825;BME280;35714;55.708;37.478;2023-07-31T10:17:41;98688.22;;;38.60;15.58
49825;BME280;35714;55.708;37.478;2023-07-31T10:20:07;98701.50;;;38.47;14.44
49825;BME280;35714;55.708;37.478;2023-07-31T10:22:34;98694.16;;;37.40;15.38
49825;BME280;35714;55.708;37.478;2023-07-31T10:25:00;98702.28;;;35.92;16.80
49825;BME280;35714;55.708;37.478;2023-07-31T10:27:26;98695.66;;;35.06;18.13
49825;BME280;35714;55.708;37.478;2023-07-31T10:29:54;98707.00;;;35.68;18.22
49825;BME280;35714;55.708;37.478;2023-07-31T10:32:21;98705.63;;;35.83;17.67
49825;BME280;35714;55.708;37.478;2023-07-31T10:34:48;98710.81;;;34.74;18.22
49825;BME280;35714;55.708;37.478;2023-07-31T10:37:28;98696.38;;;33.38;19.63
49825;BME280;35714;55.708;37.478;2023-07-31T10:42:29;98699.19;;;31.03;22.62
49825;BME280;35714;55.708;37.478;2023-07-31T10:45:00;98708.31;;;30.40;23.17
49825;BME280;35714;55.708;37.478;2023-07-31T10:47:26;98695.94;;;29.70;23.89
49825;BME280;35714;55.708;37.478;2023-07-31T10:49:52;98706.19;;;29.28;24.70
49825;BME280;35714;55.708;37.478;2023-07-31T10:52:21;98701.81;;;29.01;25.11
49825;BME280;35714;55.708;37.478;2023-07-31T10:57:52;98707.69;;;28.69;25.71
49825;BME280;35714;55.708;37.478;2023-07-31T11:02:56;98698.72;;;29.09;25.02
49825;BME280;35714;55.708;37.478;2023-07-31T11:08:19;98701.06;;;31.54;24.32
49825;BME280;35714;55.708;37.478;2023-07-31T11:10:48;98695.09;;;33.54;22.65
49825;BME280;35714;55.708;37.478;2023-07-31T11:13:14;98696.69;;;35.19;19.52
49825;BME280;35714;55.708;37.478;2023-07-31T11:15:40;98697.81;;;35.94;18.11
49825;BME280;35714;55.708;37.478;2023-07-31T11:18:06;98704.78;;;35.86;18.85
49825;BME280;35714;55.708;37.478;2023-07-31T11:20:35;98696.47;;;35.41;18.97
49825;BME280;35714;55.708;37.478;2023-07-31T11:23:02;98697.75;;;34.95;19.06
49825;BME280;35714;55.708;37.478;2023-07-31T11:25:33;98687.91;;;34.72;19.03
49825;BME280;35714;55.708;37.478;2023-07-31T11:28:06;98689.72;;;34.93;19.08
49825;BME280;35714;55.708;37.478;2023-07-31T11:30:33;98690.03;;;35.71;19.30
49825;BME280;35714;55.708;37.478;2023-07-31T11:33:01;98690.91;;;36.97;17.48
49825;BME280;35714;55.708;37.478;2023-07-31T11:35:32;98686.38;;;37.84;17.52
49825;BME280;35714;55.708;37.478;2023-07-31T11:37:58;98684.88;;;38.32;16.64
49825;BME280;35714;55.708;37.478;2023-07-31T11:40:23;98681.78;;;37.90;17.66
49825;BME280;35714;55.708;37.478;2023-07-31T11:43:04;98685.19;;;37.25;17.85
49825;BME280;35714;55.708;37.478;2023-07-31T11:45:30;98682.59;;;36.66;18.50
49825;BME280;35714;55.708;37.478;2023-07-31T11:47:56;98699.16;;;35.86;18.18
49825;BME280;35714;55.708;37.478;2023-07-31T11:50:23;98687.41;;;34.84;18.94
49825;BME280;35714;55.708;37.478;2023-07-31T11:52:55;98683.84;;;34.28;20.34
49825;BME280;35714;55.708;37.478;2023-07-31T11:55:22;98689.50;;;34.21;20.60
49825;BME280;35714;55.708;37.478;2023-07-31T11:57:48;98691.44;;;33.68;20.86
49825;BME280;35714;55.708;37.478;2023-07-31T12:00:15;98689.19;;;33.16;21.26
49825;BME280;35714;55.708;37.478;2023-07-31T12:02:41;98689.25;;;32.87;20.87
49825;BME280;35714;55.708;37.478;2023-07-31T12:05:11;98690.03;;;32.48;21.91
49825;BME280;35714;55.708;37.478;2023-07-31T12:07:45;98704.38;;;31.89;22.59
49825;BME280;35714;55.708;37.478;2023-07-31T12:10:21;98695.63;;;31.09;23.74
49825;BME280;35714;55.708;37.478;2023-07-31T12:13:04;98691.66;;;30.58;24.81
49825;BME280;35714;55.708;37.478;2023-07-31T12:15:36;98694.19;;;29.89;25.77
49825;BME280;35714;55.708;37.478;2023-07-31T12:18:11;98697.81;;;29.59;26.46
49825;BME280;35714;55.708;37.478;2023-07-31T12:20:45;98699.59;;;29.40;26.44
49825;BME280;35714;55.708;37.478;2023-07-31T12:23:20;98701.16;;;29.11;27.27
49825;BME280;35714;55.708;37.478;2023-07-31T12:26:08;98704.88;;;28.92;27.09
49825;BME280;35714;55.708;37.478;2023-07-31T12:28:40;98702.94;;;28.69;27.64
49825;BME280;35714;55.708;37.478;2023-07-31T12:31:08;98707.97;;;28.60;28.04
49825;BME280;35714;55.708;37.478;2023-07-31T12:33:35;98704.59;;;28.74;28.13
49825;BME280;35714;55.708;37.478;2023-07-31T12:36:03;98703.47;;;29.66;26.85
49825;BME280;35714;55.708;37.478;2023-07-31T12:38:30;98704.81;;;30.13;26.00
49825;BME280;35714;55.708;37.478;2023-07-31T12:40:56;98706.81;;;30.54;25.78
49825;BME280;35714;55.708;37.478;2023-07-31T12:43:21;98704.19;;;30.75;25.40
49825;BME280;35714;55.708;37.478;2023-07-31T12:45:47;98706.41;;;31.04;24.79
49825;BME280;35714;55.708;37.478;2023-07-31T12:48:13;98704.34;;;31.81;23.67
49825;BME280;35714;55.708;37.478;2023-07-31T12:50:39;98704.94;;;32.70;23.68
49825;BME280;35714;55.708;37.478;2023-07-31T12:53:05;98700.94;;;33.92;22.69
49825;BME280;35714;55.708;37.478;2023-07-31T12:55:32;98706.44;;;35.49;21.93
49825;BME280;35714;55.708;37.478;2023-07-31T12:58:02;98692.13;;;36.76;19.00
49825;BME280;35714;55.708;37.478;2023-07-31T13:00:28;98690.03;;;37.24;17.57
49825;BME280;35714;55.708;37.478;2023-07-31T13:02:54;98712.63;;;37.24;17.57
49825;BME280;35714;55.708;37.478;2023-07-31T13:05:20;98710.13;;;37.06;17.87